createdAt,value
2022-09-26T00:00:45.291Z,5.84
2022-09-26T00:01:45.341Z,5.83
2022-09-26T00:02:45.381Z,5.78
2022-09-26T00:03:45.248Z,5.77
2022-09-26T00:04:45.234Z,5.77
2022-09-26T00:05:45.240Z,5.75
2022-09-26T00:06:45.244Z,5.73
2022-09-26T00:07:45.196Z,5.69
2022-09-26T00:08:45.201Z,5.66
2022-09-26T00:09:45.222Z,5.65
2022-09-26T00:10:45.177Z,5.63
2022-09-26T00:11:45.159Z,5.63
2022-09-26T00:12:45.175Z,5.65
2022-09-26T00:13:45.204Z,5.62
2022-09-26T00:14:45.139Z,5.62
2022-09-26T00:15:45.124Z,5.59
2022-09-26T00:16:45.221Z,5.56
2022-09-26T00:17:45.123Z,5.52
2022-09-26T00:18:45.113Z,5.49
2022-09-26T00:19:45.082Z,5.48
2022-09-26T00:20:45.077Z,5.47
2022-09-26T00:21:45.159Z,5.47
2022-09-26T00:22:45.046Z,5.45
2022-09-26T00:23:45.074Z,5.47
2022-09-26T00:24:45.069Z,5.48
2022-09-26T00:25:45.044Z,5.47
2022-09-26T00:26:45.019Z,5.48
2022-09-26T00:27:45.008Z,5.49
2022-09-26T00:28:45.006Z,5.49
2022-09-26T00:29:44.980Z,5.44
2022-09-26T00:30:45.056Z,5.44
2022-09-26T00:31:44.955Z,5.41
2022-09-26T00:32:44.949Z,5.38
2022-09-26T00:33:44.946Z,5.37
2022-09-26T00:34:45.015Z,5.37
2022-09-26T00:35:44.916Z,5.38
2022-09-26T00:36:44.945Z,5.38
2022-09-26T00:37:44.912Z,5.37
2022-09-26T00:38:44.897Z,5.38
2022-09-26T00:39:44.926Z,5.38
2022-09-26T00:40:44.926Z,5.38
2022-09-26T00:41:44.884Z,5.37
2022-09-26T00:42:44.849Z,5.35
2022-09-26T00:43:44.850Z,5.32
2022-09-26T00:44:44.833Z,5.29
2022-09-26T00:45:44.889Z,5.27
2022-09-26T00:46:44.843Z,5.23
2022-09-26T00:47:44.820Z,5.20
2022-09-26T00:48:44.808Z,5.17
2022-09-26T00:49:44.775Z,5.17
2022-09-26T00:50:44.767Z,5.19
2022-09-26T00:51:44.758Z,5.15
2022-09-26T00:52:44.748Z,5.12
2022-09-26T00:53:44.736Z,5.14
2022-09-26T00:54:44.755Z,5.14
2022-09-26T00:55:44.717Z,5.12
2022-09-26T00:56:44.712Z,5.14
2022-09-26T00:57:44.689Z,5.14
2022-09-26T00:58:44.685Z,5.17
2022-09-26T00:59:44.676Z,5.14
2022-09-26T01:00:44.688Z,5.17
2022-09-26T01:01:44.828Z,5.14
2022-09-26T01:02:44.717Z,5.12
2022-09-26T01:03:44.631Z,5.14
2022-09-26T01:04:44.635Z,5.12
2022-09-26T01:05:44.756Z,5.14
2022-09-26T01:06:44.601Z,5.12
2022-09-26T01:07:44.589Z,5.09
2022-09-26T01:08:44.585Z,5.09
2022-09-26T01:09:44.568Z,5.06
2022-09-26T01:10:44.570Z,5.08
2022-09-26T01:11:44.569Z,5.08
2022-09-26T01:12:44.550Z,5.08
2022-09-26T01:13:44.537Z,5.08
2022-09-26T01:14:44.529Z,5.09
2022-09-26T01:15:44.518Z,5.09
2022-09-26T01:16:44.553Z,5.08
2022-09-26T01:17:44.516Z,5.11
2022-09-26T01:18:44.480Z,5.11
2022-09-26T01:19:44.469Z,5.09
2022-09-26T01:20:44.470Z,5.11
2022-09-26T01:21:44.473Z,5.11
2022-09-26T01:22:44.453Z,5.06
2022-09-26T01:23:44.440Z,5.08
2022-09-26T01:24:44.424Z,5.05
2022-09-26T01:25:44.415Z,5.08
2022-09-26T01:26:44.404Z,5.06
2022-09-26T01:27:44.394Z,5.06
2022-09-26T01:28:44.387Z,5.05
2022-09-26T01:29:44.419Z,5.04
2022-09-26T01:30:44.454Z,5.05
2022-09-26T01:31:44.358Z,5.04
2022-09-26T01:32:44.342Z,5.02
2022-09-26T01:33:44.324Z,5.04
2022-09-26T01:34:44.339Z,5.02
2022-09-26T01:35:44.320Z,5.02
2022-09-26T01:36:44.299Z,4.99
2022-09-26T01:37:44.314Z,5.02
2022-09-26T01:38:44.294Z,4.99
2022-09-26T01:39:44.271Z,5.01
2022-09-26T01:40:44.305Z,5.01
2022-09-26T01:41:44.259Z,5.01
2022-09-26T01:42:44.239Z,5.01
2022-09-26T01:43:44.228Z,5.02
2022-09-26T01:44:44.221Z,5.04
2022-09-26T01:45:44.233Z,5.05
2022-09-26T01:46:44.219Z,5.06
2022-09-26T01:47:44.187Z,5.06
2022-09-26T01:48:44.179Z,5.11
2022-09-26T01:49:44.164Z,5.11
2022-09-26T01:50:44.159Z,5.14
2022-09-26T01:51:44.161Z,5.17
2022-09-26T01:52:44.154Z,5.17
2022-09-26T01:53:44.126Z,5.17
2022-09-26T01:54:44.155Z,5.20
2022-09-26T01:55:44.115Z,5.19
2022-09-26T01:56:44.107Z,5.22
2022-09-26T01:57:44.085Z,5.22
2022-09-26T01:58:44.077Z,5.22
2022-09-26T01:59:44.091Z,5.23
2022-09-26T02:00:44.096Z,5.23
2022-09-26T02:01:44.140Z,5.24
2022-09-26T02:02:44.160Z,5.23
2022-09-26T02:03:44.018Z,5.24
2022-09-26T02:04:44.017Z,5.26
2022-09-26T02:05:44.017Z,5.27
2022-09-26T02:06:43.996Z,5.27
2022-09-26T02:07:43.980Z,5.27
2022-09-26T02:08:43.983Z,5.30
2022-09-26T02:09:43.960Z,5.32
2022-09-26T02:10:43.972Z,5.32
2022-09-26T02:11:43.937Z,5.30
2022-09-26T02:12:43.952Z,5.32
2022-09-26T02:13:43.925Z,5.33
2022-09-26T02:14:43.933Z,5.37
2022-09-26T02:15:43.903Z,5.37
2022-09-26T02:16:43.979Z,5.40
2022-09-26T02:17:43.885Z,5.40
2022-09-26T02:18:43.874Z,5.40
2022-09-26T02:19:43.860Z,5.44
2022-09-26T02:20:43.867Z,5.44
2022-09-26T02:21:43.840Z,5.45
2022-09-26T02:22:43.849Z,5.49
2022-09-26T02:23:43.815Z,5.47
2022-09-26T02:24:43.899Z,5.48
2022-09-26T02:25:43.795Z,5.48
2022-09-26T02:26:43.815Z,5.52
2022-09-26T02:27:43.812Z,5.52
2022-09-26T02:28:43.780Z,5.52
2022-09-26T02:29:43.762Z,5.56
2022-09-26T02:30:43.753Z,5.56
2022-09-26T02:31:43.780Z,5.58
2022-09-26T02:32:43.750Z,5.56
2022-09-26T02:33:43.752Z,5.62
2022-09-26T02:34:43.707Z,5.59
2022-09-26T02:35:43.696Z,5.58
2022-09-26T02:36:43.685Z,5.60
2022-09-26T02:37:43.686Z,5.60
2022-09-26T02:38:43.666Z,5.62
2022-09-26T02:39:43.698Z,5.62
2022-09-26T02:40:43.686Z,5.63
2022-09-26T02:41:43.637Z,5.62
2022-09-26T02:42:43.625Z,5.63
2022-09-26T02:43:43.619Z,5.65
2022-09-26T02:44:43.627Z,5.66
2022-09-26T02:45:43.703Z,5.67
2022-09-26T02:46:43.590Z,5.69
2022-09-26T02:47:43.578Z,5.70
2022-09-26T02:48:43.585Z,5.70
2022-09-26T02:49:43.562Z,5.70
2022-09-26T02:50:43.554Z,5.70
2022-09-26T02:51:43.538Z,5.73
2022-09-26T02:52:43.525Z,5.73
2022-09-26T02:53:43.517Z,5.74
2022-09-26T02:54:43.524Z,5.77
2022-09-26T02:55:43.502Z,5.75
2022-09-26T02:56:43.500Z,5.78
2022-09-26T02:57:43.483Z,5.78
2022-09-26T02:58:43.462Z,5.80
2022-09-26T02:59:43.466Z,5.80
2022-09-26T03:00:44.080Z,5.81
2022-09-26T03:01:43.590Z,5.81
2022-09-26T03:02:43.442Z,5.81
2022-09-26T03:03:43.464Z,5.84
2022-09-26T03:04:43.446Z,5.84
2022-09-26T03:05:43.405Z,5.84
2022-09-26T03:06:43.380Z,5.87
2022-09-26T03:07:43.394Z,5.85
2022-09-26T03:08:43.374Z,5.88
2022-09-26T03:09:43.357Z,5.87
2022-09-26T03:10:43.360Z,5.88
2022-09-26T03:11:43.336Z,5.87
2022-09-26T03:12:43.376Z,5.88
2022-09-26T03:13:43.331Z,5.90
2022-09-26T03:14:43.298Z,5.88
2022-09-26T03:15:43.311Z,5.90
2022-09-26T03:16:43.339Z,5.90
2022-09-26T03:17:43.279Z,5.92
2022-09-26T03:18:43.257Z,5.93
2022-09-26T03:19:43.272Z,5.93
2022-09-26T03:20:43.268Z,5.90
2022-09-26T03:21:43.232Z,5.92
2022-09-26T03:22:43.222Z,5.90
2022-09-26T03:23:43.213Z,5.88
2022-09-26T03:24:43.246Z,5.88
2022-09-26T03:25:43.208Z,5.90
2022-09-26T03:26:43.177Z,6.01
2022-09-26T03:27:43.176Z,6.08
2022-09-26T03:28:43.159Z,6.08
2022-09-26T03:29:43.153Z,6.06
2022-09-26T03:30:43.149Z,6.13
2022-09-26T03:31:43.219Z,6.14
2022-09-26T03:32:43.131Z,6.16
2022-09-26T03:33:43.104Z,6.16
2022-09-26T03:34:43.102Z,6.20
2022-09-26T03:35:43.095Z,6.40
2022-09-26T03:36:43.085Z,6.64
2022-09-26T03:37:43.544Z,6.73
2022-09-26T03:38:43.057Z,6.75
2022-09-26T03:39:43.060Z,6.81
2022-09-26T03:40:43.091Z,6.79
2022-09-26T03:41:43.054Z,6.93
2022-09-26T03:42:43.015Z,7.09
2022-09-26T03:43:43.020Z,7.11
2022-09-26T03:44:43.017Z,7.15
2022-09-26T03:45:43.082Z,7.08
2022-09-26T03:46:42.974Z,6.99
2022-09-26T03:47:42.982Z,6.89
2022-09-26T03:48:42.979Z,6.82
2022-09-26T03:49:42.951Z,6.76
2022-09-26T03:50:42.948Z,6.72
2022-09-26T03:51:42.947Z,6.68
2022-09-26T03:52:42.925Z,6.61
2022-09-26T03:53:42.918Z,6.58
2022-09-26T03:54:42.918Z,6.54
2022-09-26T03:55:42.925Z,6.51
2022-09-26T03:56:42.885Z,6.48
2022-09-26T03:57:42.866Z,6.43
2022-09-26T03:58:42.847Z,6.43
2022-09-26T03:59:42.852Z,6.40
2022-09-26T04:00:42.895Z,6.40
2022-09-26T04:01:42.913Z,6.39
2022-09-26T04:02:42.908Z,6.36
2022-09-26T04:03:47.789Z,6.33
2022-09-26T04:04:42.796Z,6.35
2022-09-26T04:05:42.788Z,6.32
2022-09-26T04:06:42.802Z,6.32
2022-09-26T04:07:42.763Z,6.32
2022-09-26T04:08:42.757Z,6.30
2022-09-26T04:09:42.750Z,6.30
2022-09-26T04:10:42.735Z,6.32
2022-09-26T04:11:42.741Z,6.32
2022-09-26T04:12:42.726Z,6.32
2022-09-26T04:13:52.290Z,6.32
2022-09-26T04:14:42.696Z,6.30
2022-09-26T04:15:42.681Z,6.32
2022-09-26T04:16:42.707Z,6.32
2022-09-26T04:17:42.664Z,6.32
2022-09-26T04:18:42.667Z,6.30
2022-09-26T04:19:42.662Z,6.33
2022-09-26T04:20:42.642Z,6.35
2022-09-26T04:21:42.621Z,6.36
2022-09-26T04:22:42.653Z,6.38
2022-09-26T04:23:42.599Z,6.43
2022-09-26T04:24:42.596Z,6.45
2022-09-26T04:25:42.596Z,6.50
2022-09-26T04:26:42.565Z,6.81
2022-09-26T04:27:42.557Z,6.91
2022-09-26T04:28:42.541Z,7.08
2022-09-26T04:29:42.546Z,7.15
2022-09-26T04:30:42.537Z,7.21
2022-09-26T04:31:42.583Z,7.24
2022-09-26T04:32:42.508Z,7.24
2022-09-26T04:33:42.510Z,7.44
2022-09-26T04:34:42.479Z,7.54
2022-09-26T04:35:42.473Z,7.58
2022-09-26T04:36:42.472Z,7.57
2022-09-26T04:37:42.502Z,7.60
2022-09-26T04:38:42.457Z,7.55
2022-09-26T04:39:42.450Z,7.52
2022-09-26T04:40:43.048Z,7.66
2022-09-26T04:41:42.417Z,7.67
2022-09-26T04:42:42.412Z,7.85
2022-09-26T04:43:42.427Z,8.00
2022-09-26T04:44:42.413Z,8.02
2022-09-26T04:45:42.484Z,8.06
2022-09-26T04:46:42.364Z,8.04
2022-09-26T04:47:42.351Z,8.06
2022-09-26T04:48:42.390Z,8.06
2022-09-26T04:49:42.336Z,8.06
2022-09-26T04:50:42.267Z,8.02
2022-09-26T04:51:42.281Z,8.03
2022-09-26T04:52:42.246Z,8.03
2022-09-26T04:53:42.244Z,8.00
2022-09-26T04:54:42.298Z,8.02
2022-09-26T04:55:42.255Z,8.04
2022-09-26T04:56:42.204Z,8.14
2022-09-26T04:57:42.219Z,8.17
2022-09-26T04:58:42.237Z,8.20
2022-09-26T04:59:42.198Z,8.22
2022-09-26T05:00:42.227Z,8.22
2022-09-26T05:01:42.214Z,8.20
2022-09-26T05:02:42.264Z,8.20
2022-09-26T05:03:42.135Z,8.21
2022-09-26T05:04:42.125Z,8.24
2022-09-26T05:05:42.133Z,8.28
2022-09-26T05:06:42.097Z,8.25
2022-09-26T05:07:42.094Z,8.25
2022-09-26T05:08:42.088Z,8.25
2022-09-26T05:09:42.102Z,8.27
2022-09-26T05:10:42.070Z,8.27
2022-09-26T05:11:42.080Z,8.25
2022-09-26T05:12:42.036Z,8.27
2022-09-26T05:13:42.029Z,8.29
2022-09-26T05:14:42.023Z,8.32
2022-09-26T05:15:42.012Z,8.32
2022-09-26T05:16:42.101Z,8.34
2022-09-26T05:17:42.017Z,8.32
2022-09-26T05:18:41.976Z,8.31
2022-09-26T05:19:41.974Z,8.31
2022-09-26T05:20:41.950Z,8.34
2022-09-26T05:21:41.971Z,8.32
2022-09-26T05:22:41.956Z,8.34
2022-09-26T05:23:44.836Z,8.36
2022-09-26T05:24:41.937Z,8.32
2022-09-26T05:25:41.905Z,8.28
2022-09-26T05:26:41.898Z,8.25
2022-09-26T05:27:41.906Z,8.22
2022-09-26T05:28:41.876Z,8.18
2022-09-26T05:29:41.873Z,8.17
2022-09-26T05:30:41.860Z,8.12
2022-09-26T05:31:41.869Z,8.07
2022-09-26T05:32:41.833Z,8.03
2022-09-26T05:33:41.846Z,8.00
2022-09-26T05:34:41.839Z,7.99
2022-09-26T05:35:41.808Z,7.95
2022-09-26T05:36:41.807Z,7.96
2022-09-26T05:37:41.813Z,7.96
2022-09-26T05:38:41.774Z,7.99
2022-09-26T05:39:42.738Z,7.96
2022-09-26T05:40:41.807Z,7.96
2022-09-26T05:41:41.763Z,7.96
2022-09-26T05:42:41.745Z,7.96
2022-09-26T05:43:41.722Z,7.95
2022-09-26T05:44:41.756Z,8.00
2022-09-26T05:45:41.714Z,8.02
2022-09-26T05:46:41.737Z,8.03
2022-09-26T05:47:41.681Z,8.06
2022-09-26T05:48:41.678Z,8.10
2022-09-26T05:49:41.663Z,8.10
2022-09-26T05:50:43.664Z,8.07
2022-09-26T05:51:41.637Z,8.07
2022-09-26T05:52:41.633Z,8.07
2022-09-26T05:53:41.722Z,8.12
2022-09-26T05:54:41.604Z,8.10
2022-09-26T05:55:41.636Z,8.07
2022-09-26T05:56:41.584Z,8.09
2022-09-26T05:57:41.597Z,8.09
2022-09-26T05:58:41.575Z,8.07
2022-09-26T05:59:41.565Z,8.04
2022-09-26T06:00:41.607Z,8.03
2022-09-26T06:01:41.662Z,8.02
2022-09-26T06:02:41.641Z,8.00
2022-09-26T06:03:41.520Z,8.00
2022-09-26T06:04:41.521Z,8.00
2022-09-26T06:05:41.541Z,8.03
2022-09-26T06:06:41.504Z,8.04
2022-09-26T06:07:41.477Z,8.10
2022-09-26T06:08:41.462Z,8.14
2022-09-26T06:09:41.458Z,8.20
2022-09-26T06:10:41.442Z,8.22
2022-09-26T06:11:41.463Z,8.28
2022-09-26T06:12:41.474Z,8.29
2022-09-26T06:13:41.426Z,8.29
2022-09-26T06:14:41.403Z,8.27
2022-09-26T06:15:41.409Z,8.28
2022-09-26T06:16:41.441Z,8.27
2022-09-26T06:17:41.372Z,8.29
2022-09-26T06:18:41.405Z,8.29
2022-09-26T06:19:41.358Z,8.36
2022-09-26T06:20:41.339Z,8.37
2022-09-26T06:21:41.330Z,8.39
2022-09-26T06:22:41.322Z,8.40
2022-09-26T06:23:41.316Z,8.42
2022-09-26T06:24:41.312Z,8.43
2022-09-26T06:25:41.297Z,8.42
2022-09-26T06:26:41.281Z,8.42
2022-09-26T06:27:41.269Z,8.42
2022-09-26T06:28:41.264Z,8.46
2022-09-26T06:29:41.253Z,8.43
2022-09-26T06:30:41.282Z,8.43
2022-09-26T06:31:41.291Z,8.43
2022-09-26T06:32:41.211Z,8.43
2022-09-26T06:33:41.211Z,8.46
2022-09-26T06:34:41.201Z,8.43
2022-09-26T06:35:41.230Z,8.45
2022-09-26T06:36:41.199Z,8.43
2022-09-26T06:37:41.168Z,8.40
2022-09-26T06:38:41.156Z,8.45
2022-09-26T06:39:41.148Z,8.45
2022-09-26T06:40:41.216Z,8.46
2022-09-26T06:41:41.152Z,8.49
2022-09-26T06:42:41.149Z,8.52
2022-09-26T06:43:41.107Z,8.54
2022-09-26T06:44:41.128Z,8.55
2022-09-26T06:45:41.103Z,8.58
2022-09-26T06:46:41.151Z,8.58
2022-09-26T06:47:41.065Z,8.60
2022-09-26T06:48:41.076Z,8.61
2022-09-26T06:49:41.063Z,8.64
2022-09-26T06:50:41.029Z,8.68
2022-09-26T06:51:41.055Z,8.75
2022-09-26T06:52:41.037Z,8.75
2022-09-26T06:53:41.013Z,8.78
2022-09-26T06:54:41.017Z,8.83
2022-09-26T06:55:40.976Z,8.86
2022-09-26T06:56:40.976Z,8.94
2022-09-26T06:57:40.960Z,8.97
2022-09-26T06:58:40.996Z,8.97
2022-09-26T06:59:40.961Z,8.98
2022-09-26T07:00:41.173Z,9.00
2022-09-26T07:01:41.059Z,9.00
2022-09-26T07:02:40.917Z,9.01
2022-09-26T07:03:45.327Z,9.04
2022-09-26T07:04:40.929Z,9.00
2022-09-26T07:05:40.908Z,8.97
2022-09-26T07:06:40.875Z,8.94
2022-09-26T07:07:40.850Z,8.93
2022-09-26T07:09:01.457Z,8.86
2022-09-26T07:09:40.860Z,8.85
2022-09-26T07:10:40.853Z,8.85
2022-09-26T07:12:12.457Z,8.91
2022-09-26T07:12:40.842Z,8.94
2022-09-26T07:13:40.825Z,8.96
2022-09-26T07:14:40.785Z,8.94
2022-09-26T07:15:40.808Z,9.00
2022-09-26T07:16:40.835Z,8.98
2022-09-26T07:17:40.754Z,9.03
2022-09-26T07:18:40.762Z,9.13
2022-09-26T07:19:40.732Z,9.19
2022-09-26T07:20:40.745Z,9.20
2022-09-26T07:21:40.715Z,9.20
2022-09-26T07:22:40.701Z,9.22
2022-09-26T07:23:40.702Z,9.32
2022-09-26T07:24:40.683Z,9.52
2022-09-26T07:25:40.684Z,9.62
2022-09-26T07:26:40.678Z,9.77
2022-09-26T07:27:40.667Z,9.91
2022-09-26T07:28:40.639Z,9.91
2022-09-26T07:29:40.635Z,9.89
2022-09-26T07:30:40.643Z,9.92
2022-09-26T07:31:40.732Z,9.95
2022-09-26T07:32:40.609Z,9.93
2022-09-26T07:33:40.666Z,10.04
2022-09-26T07:34:47.103Z,10.04
2022-09-26T07:35:40.591Z,9.88
2022-09-26T07:36:40.577Z,9.89
2022-09-26T07:37:40.552Z,9.88
2022-09-26T07:38:40.563Z,9.73
2022-09-26T07:39:40.532Z,9.73
2022-09-26T07:40:40.634Z,9.74
2022-09-26T07:41:40.527Z,9.92
2022-09-26T07:42:40.493Z,10.02
2022-09-26T07:45:19.677Z,9.98
2022-09-26T07:45:40.487Z,9.95
2022-09-26T07:46:40.621Z,9.96
2022-09-26T07:47:40.445Z,9.98
2022-09-26T07:48:40.434Z,10.09
2022-09-26T07:49:40.434Z,9.96
2022-09-26T07:50:40.426Z,9.86
2022-09-26T07:51:40.453Z,9.81
2022-09-26T07:52:40.397Z,9.78
2022-09-26T07:53:40.395Z,9.80
2022-09-26T07:54:40.372Z,9.81
2022-09-26T07:55:40.375Z,9.80
2022-09-26T07:56:40.373Z,9.68
2022-09-26T07:57:40.369Z,9.56
2022-09-26T07:58:40.338Z,9.52
2022-09-26T07:59:40.328Z,9.48
2022-09-26T08:00:40.313Z,9.48
2022-09-26T08:01:40.371Z,9.48
2022-09-26T08:02:40.365Z,9.44
2022-09-26T08:03:40.281Z,9.49
2022-09-26T08:04:40.270Z,9.44
2022-09-26T08:05:40.258Z,9.41
2022-09-26T08:06:40.245Z,9.40
2022-09-26T08:07:42.105Z,9.41
2022-09-26T08:08:40.260Z,9.44
2022-09-26T08:09:40.225Z,9.52
2022-09-26T08:10:40.213Z,9.55
2022-09-26T08:11:40.188Z,9.63
2022-09-26T08:12:40.191Z,9.74
2022-09-26T08:13:40.187Z,9.77
2022-09-26T08:14:40.196Z,9.83
2022-09-26T08:15:40.188Z,9.91
2022-09-26T08:16:40.177Z,9.80
2022-09-26T08:17:40.132Z,9.81
2022-09-26T08:18:40.137Z,9.80
2022-09-26T08:19:40.131Z,9.77
2022-09-26T08:20:40.128Z,9.81
2022-09-26T08:21:40.108Z,9.85
2022-09-26T08:22:40.081Z,9.86
2022-09-26T08:23:40.072Z,9.86
2022-09-26T08:24:40.069Z,9.89
2022-09-26T08:25:40.066Z,9.91
2022-09-26T08:26:44.103Z,9.92
2022-09-26T08:27:40.033Z,9.95
2022-09-26T08:28:40.018Z,9.96
2022-09-26T08:29:40.013Z,9.98
2022-09-26T08:30:40.000Z,9.93
2022-09-26T08:31:40.223Z,9.96
2022-09-26T08:32:39.975Z,9.92
2022-09-26T08:33:39.973Z,9.83
2022-09-26T08:34:39.962Z,9.81
2022-09-26T08:35:39.942Z,9.81
2022-09-26T08:36:39.953Z,9.81
2022-09-26T08:37:39.934Z,9.80
2022-09-26T08:38:39.913Z,9.81
2022-09-26T08:39:39.912Z,9.85
2022-09-26T08:40:40.044Z,9.88
2022-09-26T08:41:39.878Z,9.83
2022-09-26T08:42:39.903Z,9.81
2022-09-26T08:43:39.873Z,9.78
2022-09-26T08:44:39.887Z,9.80
2022-09-26T08:45:43.009Z,9.83
2022-09-26T08:46:39.862Z,9.86
2022-09-26T08:47:39.825Z,9.92
2022-09-26T08:48:39.855Z,9.89
2022-09-26T08:49:39.799Z,9.92
2022-09-26T08:50:39.795Z,9.91
2022-09-26T08:51:39.791Z,9.91
2022-09-26T08:52:39.784Z,9.92
2022-09-26T08:53:39.813Z,9.98
2022-09-26T08:54:39.801Z,10.07
2022-09-26T08:55:39.738Z,10.10
2022-09-26T08:56:39.732Z,10.09
2022-09-26T08:57:39.742Z,10.14
2022-09-26T08:58:39.719Z,10.22
2022-09-26T08:59:39.737Z,10.31
2022-09-26T09:00:39.704Z,10.46
2022-09-26T09:01:39.851Z,10.54
2022-09-26T09:02:39.853Z,10.70
2022-09-26T09:03:39.659Z,10.87
2022-09-26T09:04:39.667Z,11.02
2022-09-26T09:05:39.641Z,11.12
2022-09-26T09:06:39.626Z,11.21
2022-09-26T09:07:39.638Z,11.31
2022-09-26T09:08:39.608Z,11.42
2022-09-26T09:09:39.591Z,11.41
2022-09-26T09:10:39.600Z,11.38
2022-09-26T09:11:39.590Z,11.39
2022-09-26T09:12:39.562Z,11.45
2022-09-26T09:13:39.553Z,11.54
2022-09-26T09:14:39.538Z,11.45
2022-09-26T09:15:39.579Z,11.45
2022-09-26T09:16:39.545Z,11.42
2022-09-26T09:17:39.528Z,11.48
2022-09-26T09:18:39.525Z,11.53
2022-09-26T09:19:39.489Z,11.51
2022-09-26T09:20:39.501Z,11.56
2022-09-26T09:21:41.954Z,11.70
2022-09-26T09:22:39.504Z,11.75
2022-09-26T09:23:39.447Z,11.84
2022-09-26T09:24:39.513Z,11.79
2022-09-26T09:25:39.434Z,11.87
2022-09-26T09:27:55.249Z,12.01
2022-09-26T09:28:39.410Z,12.12
2022-09-26T09:29:39.408Z,12.31
2022-09-26T09:30:39.392Z,12.43
2022-09-26T09:31:39.409Z,12.55
2022-09-26T09:32:39.379Z,12.58
2022-09-26T09:33:39.369Z,12.61
2022-09-26T09:34:39.352Z,12.61
2022-09-26T09:35:39.326Z,12.70
2022-09-26T09:36:39.322Z,12.81
2022-09-26T09:37:39.304Z,12.79
2022-09-26T09:38:39.318Z,12.81
2022-09-26T09:39:39.343Z,12.91
2022-09-26T09:40:39.396Z,12.85
2022-09-26T09:41:39.267Z,12.80
2022-09-26T09:42:39.279Z,12.84
2022-09-26T09:43:39.237Z,13.07
2022-09-26T09:44:41.994Z,13.36
2022-09-26T09:45:39.227Z,13.51
2022-09-26T09:46:39.285Z,13.32
2022-09-26T09:47:39.195Z,13.36
2022-09-26T09:48:39.187Z,13.17
2022-09-26T09:49:39.174Z,13.17
2022-09-26T09:50:39.251Z,13.28
2022-09-26T09:51:39.704Z,13.28
2022-09-26T09:52:39.150Z,13.36
2022-09-26T09:53:39.154Z,13.51
2022-09-26T09:54:39.148Z,13.47
2022-09-26T09:55:39.114Z,13.44
2022-09-26T09:56:39.133Z,13.36
2022-09-26T09:57:39.094Z,13.04
2022-09-26T09:58:39.083Z,12.87
2022-09-26T09:59:39.076Z,12.80
2022-09-26T10:00:39.063Z,12.89
2022-09-26T10:01:39.055Z,12.94
2022-09-26T10:02:39.093Z,12.88
2022-09-26T10:03:39.032Z,12.84
2022-09-26T10:04:39.028Z,12.81
2022-09-26T10:05:39.014Z,12.92
2022-09-26T10:06:46.382Z,13.12
2022-09-26T10:07:39.015Z,13.28
2022-09-26T10:08:38.981Z,13.32
2022-09-26T10:09:40.729Z,13.35
2022-09-26T10:10:38.971Z,13.38
2022-09-26T10:11:38.951Z,13.31
2022-09-26T10:12:38.976Z,13.14
2022-09-26T10:13:38.939Z,13.04
2022-09-26T10:14:38.919Z,13.12
2022-09-26T10:15:38.998Z,13.24
2022-09-26T10:16:38.902Z,13.19
2022-09-26T10:17:38.889Z,13.09
2022-09-26T10:18:38.902Z,13.04
2022-09-26T10:19:38.879Z,12.99
2022-09-26T10:20:38.896Z,12.94
2022-09-26T10:21:38.845Z,12.91
2022-09-26T10:22:38.837Z,12.95
2022-09-26T10:23:38.819Z,12.95
2022-09-26T10:24:38.820Z,12.84
2022-09-26T10:25:38.846Z,12.70
2022-09-26T10:26:38.853Z,12.67
2022-09-26T10:27:38.795Z,12.76
2022-09-26T10:28:38.770Z,12.80
2022-09-26T10:29:38.771Z,12.81
2022-09-26T10:30:38.785Z,12.92
2022-09-26T10:31:42.664Z,12.96
2022-09-26T10:32:38.757Z,12.95
2022-09-26T10:33:38.723Z,13.01
2022-09-26T10:34:38.735Z,13.07
2022-09-26T10:35:38.718Z,13.06
2022-09-26T10:36:38.697Z,13.12
2022-09-26T10:37:38.723Z,13.12
2022-09-26T10:38:38.673Z,13.17
2022-09-26T10:39:38.665Z,13.09
2022-09-26T10:40:38.745Z,13.07
2022-09-26T10:41:38.643Z,13.01
2022-09-26T10:42:38.635Z,13.04
2022-09-26T10:43:38.695Z,13.10
2022-09-26T10:44:38.630Z,13.10
2022-09-26T10:45:38.598Z,13.03
2022-09-26T10:46:38.619Z,12.95
2022-09-26T10:47:38.586Z,12.87
2022-09-26T10:48:38.565Z,12.88
2022-09-26T10:49:38.568Z,12.91
2022-09-26T10:50:38.548Z,12.99
2022-09-26T10:51:38.545Z,13.10
2022-09-26T10:52:38.526Z,13.06
2022-09-26T10:53:38.525Z,13.10
2022-09-26T10:54:38.515Z,13.22
2022-09-26T10:55:38.485Z,13.29
2022-09-26T10:56:38.521Z,13.35
2022-09-26T10:57:38.468Z,13.27
2022-09-26T10:58:38.463Z,13.35
2022-09-26T10:59:38.474Z,13.47
2022-09-26T11:00:38.448Z,13.46
2022-09-26T11:01:38.494Z,13.48
2022-09-26T11:02:38.421Z,13.46
2022-09-26T11:03:38.464Z,13.44
2022-09-26T11:04:38.409Z,13.39
2022-09-26T11:05:38.476Z,13.38
2022-09-26T11:06:38.402Z,13.57
2022-09-26T11:07:38.405Z,13.71
2022-09-26T11:08:38.356Z,13.69
2022-09-26T11:09:38.443Z,13.75
2022-09-26T11:10:38.336Z,13.87
2022-09-26T11:11:38.351Z,14.05
2022-09-26T11:12:38.341Z,14.20
2022-09-26T11:13:38.327Z,14.27
2022-09-26T11:14:38.300Z,14.41
2022-09-26T11:15:38.376Z,14.69
2022-09-26T11:16:38.446Z,15.05
2022-09-26T11:17:38.268Z,15.13
2022-09-26T11:18:38.257Z,14.87
2022-09-26T11:19:38.245Z,14.91
2022-09-26T11:20:38.234Z,14.90
2022-09-26T11:21:38.242Z,14.78
2022-09-26T11:22:38.228Z,14.56
2022-09-26T11:23:38.200Z,14.26
2022-09-26T11:24:38.186Z,14.05
2022-09-26T11:26:49.867Z,13.68
2022-09-26T11:29:02.571Z,13.44
2022-09-26T11:30:03.543Z,13.46
2022-09-26T11:31:03.572Z,13.57
2022-09-26T11:32:03.521Z,13.62
2022-09-26T11:33:03.600Z,13.61
2022-09-26T11:34:03.572Z,13.48
2022-09-26T11:35:03.547Z,13.41
2022-09-26T11:36:03.491Z,13.50
2022-09-26T11:37:03.484Z,13.65
2022-09-26T11:38:03.494Z,13.54
2022-09-26T11:39:03.458Z,13.48
2022-09-26T11:40:07.335Z,13.53
2022-09-26T11:41:03.521Z,13.57
2022-09-26T11:42:03.422Z,13.62
2022-09-26T11:43:03.420Z,13.59
2022-09-26T11:44:03.398Z,13.51
2022-09-26T11:45:03.386Z,13.39
2022-09-26T11:46:03.474Z,13.38
2022-09-26T11:47:03.411Z,13.32
2022-09-26T11:48:03.362Z,13.31
2022-09-26T11:49:03.372Z,13.31
2022-09-26T11:50:03.340Z,13.36
2022-09-26T11:51:03.327Z,13.39
2022-09-26T11:52:03.314Z,13.39
2022-09-26T11:53:03.302Z,13.43
2022-09-26T11:54:03.312Z,13.43
2022-09-26T11:55:03.308Z,13.32
2022-09-26T11:56:03.280Z,13.22
2022-09-26T11:57:03.439Z,13.10
2022-09-26T11:58:03.937Z,13.09
2022-09-26T11:59:03.241Z,13.14
2022-09-26T12:00:03.253Z,13.09
2022-09-26T12:01:03.224Z,13.03
2022-09-26T12:02:03.215Z,13.07
2022-09-26T12:03:03.315Z,13.09
2022-09-26T12:04:03.347Z,13.04
2022-09-26T12:05:03.226Z,13.10
2022-09-26T12:06:03.291Z,13.16
2022-09-26T12:07:03.152Z,13.17
2022-09-26T12:08:03.163Z,13.03
2022-09-26T12:09:03.134Z,13.01
2022-09-26T12:10:03.161Z,12.91
2022-09-26T12:11:03.114Z,12.87
2022-09-26T12:12:03.120Z,12.91
2022-09-26T12:13:03.966Z,12.96
2022-09-26T12:14:03.083Z,13.07
2022-09-26T12:15:03.088Z,13.19
2022-09-26T12:16:03.134Z,13.29
2022-09-26T12:17:03.056Z,13.32
2022-09-26T12:18:03.049Z,13.36
2022-09-26T12:19:03.042Z,13.43
2022-09-26T12:20:03.028Z,13.43
2022-09-26T12:21:03.159Z,13.44
2022-09-26T12:22:02.998Z,13.39
2022-09-26T12:23:02.982Z,13.47
2022-09-26T12:24:02.991Z,13.39
2022-09-26T12:25:02.981Z,13.39
2022-09-26T12:26:03.051Z,13.47
2022-09-26T12:27:02.954Z,13.54
2022-09-26T12:28:02.967Z,13.53
2022-09-26T12:29:02.923Z,13.50
2022-09-26T12:30:02.975Z,13.50
2022-09-26T12:31:03.128Z,13.61
2022-09-26T12:32:02.919Z,13.63
2022-09-26T12:33:02.878Z,13.61
2022-09-26T12:34:02.871Z,13.53
2022-09-26T12:35:02.864Z,13.43
2022-09-26T12:36:02.856Z,13.47
2022-09-26T12:37:02.888Z,13.53
2022-09-26T12:38:02.835Z,13.46
2022-09-26T12:39:02.813Z,13.48
2022-09-26T12:40:02.812Z,13.50
2022-09-26T12:41:02.966Z,13.51
2022-09-26T12:42:02.789Z,13.43
2022-09-26T12:43:02.797Z,13.31
2022-09-26T12:44:02.809Z,13.22
2022-09-26T12:45:02.747Z,13.22
2022-09-26T12:46:02.783Z,13.16
2022-09-26T12:47:02.737Z,13.16
2022-09-26T12:48:02.735Z,13.13
2022-09-26T12:49:02.731Z,13.04
2022-09-26T12:50:02.711Z,13.01
2022-09-26T12:51:02.723Z,12.99
2022-09-26T12:52:02.679Z,12.94
2022-09-26T12:53:02.670Z,12.96
2022-09-26T12:54:02.708Z,12.85
2022-09-26T12:55:02.657Z,12.81
2022-09-26T12:56:02.637Z,12.84
2022-09-26T12:57:02.644Z,12.80
2022-09-26T12:58:02.629Z,12.74
2022-09-26T12:59:02.599Z,12.66
2022-09-26T13:00:02.655Z,12.51
2022-09-26T13:01:02.660Z,12.48
2022-09-26T13:02:02.606Z,12.38
2022-09-26T13:03:02.602Z,12.36
2022-09-26T13:04:02.557Z,12.26
2022-09-26T13:05:02.581Z,12.16
2022-09-26T13:06:07.823Z,12.12
2022-09-26T13:07:18.244Z,12.12
2022-09-26T13:08:02.518Z,12.03
2022-09-26T13:09:02.503Z,11.93
2022-09-26T13:10:02.502Z,11.87
2022-09-26T13:11:02.537Z,11.79
2022-09-26T13:12:02.464Z,11.74
2022-09-26T13:13:02.450Z,11.70
2022-09-26T13:14:02.464Z,11.69